Rising City, Nebraska
Current Conditions -  °F | °C
As of 1:55 AM on Wednesday 22 Oct 2014 (Local Time) from KOLU Reporting Station
Clear Clear  
Wind Chill: 59°   Ceiling: Unl
Heat Index: 59°   Visibility: 10mi
Dew Point: 39°   Wind: 12mph
Humidity: 48%   Direction: 140°SE
Pressure: 30.03"   Gusts: 17mph
Location:  41.2°N, 97.3°W
Report Text: KOLU 220655Z AUTO 14010G15KT 10SM CLR 15/04 A3003 RMK AO1
Loading
Personal Weather Stations






























Interactive Weather Map
Tropical Storm Tracking
New forecast layout! Learn more

10-Day Weather Forecast

Advertisements
Track Severe Weather on mobile